메인 페이지
METAR-TAF:

METAR-TAF

공항 :

이르쿠츠크 국제공항

이르쿠츠크, 러시아

위도: 52-16N, 경도: 104-19E, 고도: 513m

현재 날씨관측

예보는 35분 전, 21:00시(UTC)에 발표되었습니다.
남남동6kt
온도 7°C
습도 100%
기압 997 hPa
시정 10km 이상
고도 5000ft 상공 구름 조금, 적란운.

METAR: UIII 222100Z 15003MPS 9999 FEW050CB 07/07 Q0997 R30/290150 NOSIG RMK QFE704/0939

시각: 05:35 (21:35 UTC)

예보

예보는 1 시간 35분 전, 20:00시(UTC)에 발표되었습니다.
예보 대상 시간: 22일 21시부터 23일 21시까지 (UTC)
10kt
시정 10km 이상
고도 2000ft 상공 구름 많음, 적란운.
전환 중
23일 04시부터 23일 06시까지 (UTC)
서북서10kt
일시적
23일 06시부터 23일 21시까지 (UTC)
여러 방향의 바람 29kt
뇌우, 약한비

TAF: UIII 222000Z 2221/2321 17005MPS 9999 BKN020CB BECMG 2304/2306 29005MPS TEMPO 2306/2321 VRB15MPS -TSRA

4,000개 이상의 공항 관측 자료 및 예보 (METAR 및 TAF 보고).

지도상에서 검색 가능한 기상관측소가 노란 점과 빨간 점으로 표시되어 있습니다.

기상관측소 명을 보려면 표시 위로 마우스를 이동하세요.

날씨 관측과 예보를 보려면 클릭하세요.

지도 변경 : 확대하려면 엑스 표시가 있는 녹색 버튼, 축소하려면 빼기 표시가 있는 녹색 버튼, 다음 페이지의 지도를 보려면 녹색 화살표를 클릭하세요.


METAR-TAF: